sensor_id;sensor_type;location;lat;lon;timestamp;pressure;altitude;pressure_sealevel;temperature;humidity
45255;BME280;30989;52.078;21.014;2022-08-14T00:00:22;168912.63;;;19.59;100.00
45255;BME280;30989;52.078;21.014;2022-08-14T00:02:48;168897.81;;;19.53;100.00
45255;BME280;30989;52.078;21.014;2022-08-14T00:05:17;168901.84;;;19.55;100.00
45255;BME280;30989;52.078;21.014;2022-08-14T00:07:43;168872.19;;;19.44;100.00
45255;BME280;30989;52.078;21.014;2022-08-14T00:10:12;168841.22;;;19.32;100.00
45255;BME280;30989;52.078;21.014;2022-08-14T00:12:42;168817.00;;;19.23;100.00
45255;BME280;30989;52.078;21.014;2022-08-14T00:15:15;168798.16;;;19.16;100.00
45255;BME280;30989;52.078;21.014;2022-08-14T00:17:42;168787.38;;;19.12;100.00
45255;BME280;30989;52.078;21.014;2022-08-14T00:20:08;168767.19;;;19.04;100.00
45255;BME280;30989;52.078;21.014;2022-08-14T00:22:34;168768.53;;;19.05;100.00
45255;BME280;30989;52.078;21.014;2022-08-14T00:24:59;168767.19;;;19.04;100.00
45255;BME280;30989;52.078;21.014;2022-08-14T00:27:25;168764.50;;;19.03;100.00
45255;BME280;30989;52.078;21.014;2022-08-14T00:29:50;168771.22;;;19.06;100.00
45255;BME280;30989;52.078;21.014;2022-08-14T00:32:16;168765.84;;;19.04;100.00
45255;BME280;30989;52.078;21.014;2022-08-14T00:34:41;168764.50;;;19.03;100.00
45255;BME280;30989;52.078;21.014;2022-08-14T00:37:07;168765.84;;;19.04;100.00
45255;BME280;30989;52.078;21.014;2022-08-14T00:39:32;168752.38;;;18.98;100.00
45255;BME280;30989;52.078;21.014;2022-08-14T00:41:58;168752.38;;;18.98;100.00
45255;BME280;30989;52.078;21.014;2022-08-14T00:44:24;168741.59;;;18.94;100.00
45255;BME280;30989;52.078;21.014;2022-08-14T00:46:50;168733.53;;;18.91;100.00
45255;BME280;30989;52.078;21.014;2022-08-14T00:49:15;168737.56;;;18.93;100.00
45255;BME280;30989;52.078;21.014;2022-08-14T00:51:42;168730.84;;;18.90;100.00
45255;BME280;30989;52.078;21.014;2022-08-14T00:54:08;168717.38;;;18.85;100.00
45255;BME280;30989;52.078;21.014;2022-08-14T00:56:35;168709.31;;;18.82;100.00
45255;BME280;30989;52.078;21.014;2022-08-14T00:59:01;168712.00;;;18.83;100.00
45255;BME280;30989;52.078;21.014;2022-08-14T01:01:27;168720.06;;;18.86;100.00
45255;BME280;30989;52.078;21.014;2022-08-14T01:03:56;168717.38;;;18.85;100.00
45255;BME280;30989;52.078;21.014;2022-08-14T01:06:22;168725.47;;;18.88;100.00
45255;BME280;30989;52.078;21.014;2022-08-14T01:08:48;168730.84;;;18.90;100.00
45255;BME280;30989;52.078;21.014;2022-08-14T01:11:14;168732.19;;;18.91;100.00
45255;BME280;30989;52.078;21.014;2022-08-14T01:13:42;168738.91;;;18.93;100.00
45255;BME280;30989;52.078;21.014;2022-08-14T01:16:11;168725.47;;;18.88;100.00
45255;BME280;30989;52.078;21.014;2022-08-14T01:18:37;168730.84;;;18.90;100.00
45255;BME280;30989;52.078;21.014;2022-08-14T01:21:32;168733.53;;;18.91;100.00
45255;BME280;30989;52.078;21.014;2022-08-14T01:23:59;168730.84;;;18.90;100.00
45255;BME280;30989;52.078;21.014;2022-08-14T01:26:25;168736.22;;;18.92;100.00
45255;BME280;30989;52.078;21.014;2022-08-14T01:28:53;168737.56;;;18.93;100.00
45255;BME280;30989;52.078;21.014;2022-08-14T01:31:22;168736.22;;;18.92;100.00
45255;BME280;30989;52.078;21.014;2022-08-14T01:33:49;168732.19;;;18.91;100.00
45255;BME280;30989;52.078;21.014;2022-08-14T01:36:17;168714.69;;;18.84;100.00
45255;BME280;30989;52.078;21.014;2022-08-14T01:38:45;168736.22;;;18.92;100.00
45255;BME280;30989;52.078;21.014;2022-08-14T01:41:17;168716.03;;;18.85;100.00
45255;BME280;30989;52.078;21.014;2022-08-14T01:43:53;168732.19;;;18.91;100.00
45255;BME280;30989;52.078;21.014;2022-08-14T01:46:23;168737.56;;;18.93;100.00
45255;BME280;30989;52.078;21.014;2022-08-14T01:48:50;168730.84;;;18.90;100.00
45255;BME280;30989;52.078;21.014;2022-08-14T01:51:18;168732.19;;;18.91;100.00
45255;BME280;30989;52.078;21.014;2022-08-14T01:53:52;168714.69;;;18.84;100.00
45255;BME280;30989;52.078;21.014;2022-08-14T01:56:19;168716.03;;;18.85;100.00
45255;BME280;30989;52.078;21.014;2022-08-14T01:58:47;168706.63;;;18.81;100.00
45255;BME280;30989;52.078;21.014;2022-08-14T02:01:20;168703.94;;;18.80;100.00
45255;BME280;30989;52.078;21.014;2022-08-14T02:03:46;168702.59;;;18.80;100.00
45255;BME280;30989;52.078;21.014;2022-08-14T02:06:13;168701.22;;;18.79;100.00
45255;BME280;30989;52.078;21.014;2022-08-14T02:08:39;168699.88;;;18.79;100.00
45255;BME280;30989;52.078;21.014;2022-08-14T02:11:07;168693.16;;;18.76;100.00
45255;BME280;30989;52.078;21.014;2022-08-14T02:13:53;168697.19;;;18.78;100.00
45255;BME280;30989;52.078;21.014;2022-08-14T02:16:24;168690.47;;;18.75;100.00
45255;BME280;30989;52.078;21.014;2022-08-14T02:18:51;168685.09;;;18.73;100.00
45255;BME280;30989;52.078;21.014;2022-08-14T02:21:17;168683.75;;;18.73;100.00
45255;BME280;30989;52.078;21.014;2022-08-14T02:23:48;168679.69;;;18.71;100.00
45255;BME280;30989;52.078;21.014;2022-08-14T02:26:21;168663.56;;;18.65;100.00
45255;BME280;30989;52.078;21.014;2022-08-14T02:28:49;168671.63;;;18.68;100.00
45255;BME280;30989;52.078;21.014;2022-08-14T02:31:15;168666.25;;;18.66;100.00
45255;BME280;30989;52.078;21.014;2022-08-14T02:33:41;168659.50;;;18.63;100.00
45255;BME280;30989;52.078;21.014;2022-08-14T02:36:08;168663.56;;;18.65;100.00
45255;BME280;30989;52.078;21.014;2022-08-14T02:38:35;168660.84;;;18.64;100.00
45255;BME280;30989;52.078;21.014;2022-08-14T02:41:01;168656.81;;;18.62;100.00
45255;BME280;30989;52.078;21.014;2022-08-14T02:43:27;168660.84;;;18.64;100.00
45255;BME280;30989;52.078;21.014;2022-08-14T02:45:57;168658.16;;;18.63;100.00
45255;BME280;30989;52.078;21.014;2022-08-14T02:48:22;168658.16;;;18.63;100.00
45255;BME280;30989;52.078;21.014;2022-08-14T02:50:59;168641.97;;;18.57;100.00
45255;BME280;30989;52.078;21.014;2022-08-14T02:53:25;168658.16;;;18.63;100.00
45255;BME280;30989;52.078;21.014;2022-08-14T02:55:50;168658.16;;;18.63;100.00
45255;BME280;30989;52.078;21.014;2022-08-14T02:58:16;168655.47;;;18.62;100.00
45255;BME280;30989;52.078;21.014;2022-08-14T03:00:44;168658.16;;;18.63;100.00
45255;BME280;30989;52.078;21.014;2022-08-14T03:03:09;168639.28;;;18.56;100.00
45255;BME280;30989;52.078;21.014;2022-08-14T03:05:35;168643.31;;;18.57;100.00
45255;BME280;30989;52.078;21.014;2022-08-14T03:08:12;168631.19;;;18.53;100.00
45255;BME280;30989;52.078;21.014;2022-08-14T03:10:38;168637.94;;;18.55;100.00
45255;BME280;30989;52.078;21.014;2022-08-14T03:13:04;168631.19;;;18.53;100.00
45255;BME280;30989;52.078;21.014;2022-08-14T03:15:31;168633.91;;;18.54;100.00
45255;BME280;30989;52.078;21.014;2022-08-14T03:17:58;168617.75;;;18.48;100.00
45255;BME280;30989;52.078;21.014;2022-08-14T03:20:25;168627.16;;;18.51;100.00
45255;BME280;30989;52.078;21.014;2022-08-14T03:22:52;168621.78;;;18.49;100.00
45255;BME280;30989;52.078;21.014;2022-08-14T03:25:17;168623.13;;;18.50;100.00
45255;BME280;30989;52.078;21.014;2022-08-14T03:27:45;168619.09;;;18.48;100.00
45255;BME280;30989;52.078;21.014;2022-08-14T03:30:11;168619.09;;;18.48;100.00
45255;BME280;30989;52.078;21.014;2022-08-14T03:32:36;168611.03;;;18.45;100.00
45255;BME280;30989;52.078;21.014;2022-08-14T03:35:03;168611.03;;;18.45;100.00
45255;BME280;30989;52.078;21.014;2022-08-14T03:37:28;168601.59;;;18.42;100.00
45255;BME280;30989;52.078;21.014;2022-08-14T03:39:55;168588.16;;;18.36;100.00
45255;BME280;30989;52.078;21.014;2022-08-14T03:42:20;168604.28;;;18.43;100.00
45255;BME280;30989;52.078;21.014;2022-08-14T03:44:50;168605.63;;;18.43;100.00
45255;BME280;30989;52.078;21.014;2022-08-14T03:47:15;168604.28;;;18.43;100.00
45255;BME280;30989;52.078;21.014;2022-08-14T03:49:42;168594.88;;;18.39;100.00
45255;BME280;30989;52.078;21.014;2022-08-14T03:52:09;168604.28;;;18.43;100.00
45255;BME280;30989;52.078;21.014;2022-08-14T03:54:35;168592.19;;;18.38;100.00
45255;BME280;30989;52.078;21.014;2022-08-14T03:57:02;168606.97;;;18.44;100.00
45255;BME280;30989;52.078;21.014;2022-08-14T03:59:28;168619.09;;;18.48;100.00
45255;BME280;30989;52.078;21.014;2022-08-14T04:01:53;168631.19;;;18.53;100.00
45255;BME280;30989;52.078;21.014;2022-08-14T04:04:19;168636.59;;;18.55;100.00
45255;BME280;30989;52.078;21.014;2022-08-14T04:06:45;168644.66;;;18.58;100.00
45255;BME280;30989;52.078;21.014;2022-08-14T04:09:10;168623.13;;;18.50;100.00
45255;BME280;30989;52.078;21.014;2022-08-14T04:11:37;168650.03;;;18.60;100.00
45255;BME280;30989;52.078;21.014;2022-08-14T04:14:03;168658.16;;;18.63;100.00
45255;BME280;30989;52.078;21.014;2022-08-14T04:16:29;168662.22;;;18.64;100.00
45255;BME280;30989;52.078;21.014;2022-08-14T04:18:57;168662.22;;;18.64;100.00
45255;BME280;30989;52.078;21.014;2022-08-14T04:21:24;168666.25;;;18.66;100.00
45255;BME280;30989;52.078;21.014;2022-08-14T04:23:53;168670.28;;;18.67;100.00
45255;BME280;30989;52.078;21.014;2022-08-14T04:26:19;168679.69;;;18.71;100.00
45255;BME280;30989;52.078;21.014;2022-08-14T04:28:48;168693.16;;;18.76;100.00
45255;BME280;30989;52.078;21.014;2022-08-14T04:31:15;168693.16;;;18.76;100.00
45255;BME280;30989;52.078;21.014;2022-08-14T04:33:41;168697.19;;;18.78;100.00
45255;BME280;30989;52.078;21.014;2022-08-14T04:36:07;168703.94;;;18.80;100.00
45255;BME280;30989;52.078;21.014;2022-08-14T04:38:32;168712.00;;;18.83;100.00
45255;BME280;30989;52.078;21.014;2022-08-14T04:41:16;168712.00;;;18.83;100.00
45255;BME280;30989;52.078;21.014;2022-08-14T04:44:17;168693.16;;;18.76;100.00
45255;BME280;30989;52.078;21.014;2022-08-14T04:46:43;168701.22;;;18.79;100.00
45255;BME280;30989;52.078;21.014;2022-08-14T04:49:28;168689.13;;;18.75;100.00
45255;BME280;30989;52.078;21.014;2022-08-14T04:51:54;168703.94;;;18.80;100.00
45255;BME280;30989;52.078;21.014;2022-08-14T04:54:20;168709.31;;;18.82;100.00
45255;BME280;30989;52.078;21.014;2022-08-14T04:56:45;168712.00;;;18.83;100.00
45255;BME280;30989;52.078;21.014;2022-08-14T04:59:11;168729.50;;;18.90;100.00
45255;BME280;30989;52.078;21.014;2022-08-14T05:01:39;168752.38;;;18.98;100.00
45255;BME280;30989;52.078;21.014;2022-08-14T05:04:07;168769.88;;;19.05;100.00
45255;BME280;30989;52.078;21.014;2022-08-14T05:06:33;168779.31;;;19.09;100.00
45255;BME280;30989;52.078;21.014;2022-08-14T05:08:58;168806.22;;;19.19;100.00
45255;BME280;30989;52.078;21.014;2022-08-14T05:11:23;168821.03;;;19.24;100.00
45255;BME280;30989;52.078;21.014;2022-08-14T05:13:49;168852.00;;;19.36;100.00
45255;BME280;30989;52.078;21.014;2022-08-14T05:16:14;168881.63;;;19.47;100.00
45255;BME280;30989;52.078;21.014;2022-08-14T05:18:40;168897.81;;;19.53;100.00
45255;BME280;30989;52.078;21.014;2022-08-14T05:21:08;168923.41;;;19.63;100.00
45255;BME280;30989;52.078;21.014;2022-08-14T05:23:36;168932.81;;;19.67;100.00
45255;BME280;30989;52.078;21.014;2022-08-14T05:26:03;168959.75;;;19.77;100.00
45255;BME280;30989;52.078;21.014;2022-08-14T05:28:40;168985.34;;;19.86;100.00
45255;BME280;30989;52.078;21.014;2022-08-14T05:31:09;168979.94;;;19.84;100.00
45255;BME280;30989;52.078;21.014;2022-08-14T05:33:36;168950.31;;;19.73;100.00
45255;BME280;30989;52.078;21.014;2022-08-14T05:36:04;168935.50;;;19.68;100.00
45255;BME280;30989;52.078;21.014;2022-08-14T05:38:35;168908.59;;;19.57;100.00
45255;BME280;30989;52.078;21.014;2022-08-14T05:41:06;168884.31;;;19.48;100.00
45255;BME280;30989;52.078;21.014;2022-08-14T05:43:32;168868.16;;;19.42;100.00
45255;BME280;30989;52.078;21.014;2022-08-14T05:45:59;168862.75;;;19.40;100.00
45255;BME280;30989;52.078;21.014;2022-08-14T05:48:26;168889.69;;;19.50;100.00
45255;BME280;30989;52.078;21.014;2022-08-14T05:50:52;168922.06;;;19.62;100.00
45255;BME280;30989;52.078;21.014;2022-08-14T05:53:20;168950.31;;;19.73;100.00
45255;BME280;30989;52.078;21.014;2022-08-14T05:55:46;168954.38;;;19.75;100.00
45255;BME280;30989;52.078;21.014;2022-08-14T05:58:12;168985.34;;;19.86;100.00
45255;BME280;30989;52.078;21.014;2022-08-14T06:00:40;168975.91;;;19.83;100.00
45255;BME280;30989;52.078;21.014;2022-08-14T06:03:08;168982.66;;;19.85;100.00
45255;BME280;30989;52.078;21.014;2022-08-14T06:05:35;168996.13;;;19.90;100.00
45255;BME280;30989;52.078;21.014;2022-08-14T06:08:02;169010.94;;;19.96;100.00
45255;BME280;30989;52.078;21.014;2022-08-14T06:10:28;169049.97;;;20.11;100.00
45255;BME280;30989;52.078;21.014;2022-08-14T06:12:56;169064.78;;;20.16;100.00
45255;BME280;30989;52.078;21.014;2022-08-14T06:15:22;169068.84;;;20.18;100.00
45255;BME280;30989;52.078;21.014;2022-08-14T06:17:50;169091.72;;;20.26;100.00
45255;BME280;30989;52.078;21.014;2022-08-14T06:20:17;169115.97;;;20.36;100.00
45255;BME280;30989;52.078;21.014;2022-08-14T06:22:44;169126.81;;;20.40;100.00
45255;BME280;30989;52.078;21.014;2022-08-14T06:25:11;169133.53;;;20.42;100.00
45255;BME280;30989;52.078;21.014;2022-08-14T06:27:42;169140.28;;;20.45;100.00
45255;BME280;30989;52.078;21.014;2022-08-14T06:30:14;169155.09;;;20.50;100.00
45255;BME280;30989;52.078;21.014;2022-08-14T06:32:40;169155.09;;;20.50;100.00
45255;BME280;30989;52.078;21.014;2022-08-14T06:35:07;169176.66;;;20.58;100.00
45255;BME280;30989;52.078;21.014;2022-08-14T06:37:47;169200.91;;;20.68;100.00
45255;BME280;30989;52.078;21.014;2022-08-14T06:40:17;169207.63;;;20.70;100.00
45255;BME280;30989;52.078;21.014;2022-08-14T06:42:43;169230.53;;;20.79;100.00
45255;BME280;30989;52.078;21.014;2022-08-14T06:45:10;169244.06;;;20.84;100.00
45255;BME280;30989;52.078;21.014;2022-08-14T06:47:37;169250.78;;;20.86;100.00
45255;BME280;30989;52.078;21.014;2022-08-14T06:50:06;169264.28;;;20.91;100.00
45255;BME280;30989;52.078;21.014;2022-08-14T06:52:32;169273.69;;;20.95;100.00
45255;BME280;30989;52.078;21.014;2022-08-14T06:54:58;169310.09;;;21.09;100.00
45255;BME280;30989;52.078;21.014;2022-08-14T06:57:24;169334.34;;;21.18;100.00
45255;BME280;30989;52.078;21.014;2022-08-14T06:59:50;169373.47;;;21.33;100.00
45255;BME280;30989;52.078;21.014;2022-08-14T07:02:15;169395.03;;;21.41;100.00
45255;BME280;30989;52.078;21.014;2022-08-14T07:04:59;169447.59;;;21.61;100.00
45255;BME280;30989;52.078;21.014;2022-08-14T07:07:43;169461.06;;;21.66;100.00
45255;BME280;30989;52.078;21.014;2022-08-14T07:10:09;169451.63;;;21.62;100.00
45255;BME280;30989;52.078;21.014;2022-08-14T07:12:35;169454.34;;;21.63;100.00
45255;BME280;30989;52.078;21.014;2022-08-14T07:15:02;169446.25;;;21.60;100.00
45255;BME280;30989;52.078;21.014;2022-08-14T07:17:28;169463.78;;;21.67;100.00
45255;BME280;30989;52.078;21.014;2022-08-14T07:19:53;169466.47;;;21.68;100.00
45255;BME280;30989;52.078;21.014;2022-08-14T07:22:19;169457.03;;;21.64;100.00
45255;BME280;30989;52.078;21.014;2022-08-14T07:24:45;169440.84;;;21.58;100.00
45255;BME280;30989;52.078;21.014;2022-08-14T07:27:10;169455.69;;;21.64;100.00
45255;BME280;30989;52.078;21.014;2022-08-14T07:29:36;169494.78;;;21.78;100.00
45255;BME280;30989;52.078;21.014;2022-08-14T07:32:01;169506.91;;;21.83;100.00
45255;BME280;30989;52.078;21.014;2022-08-14T07:34:27;169527.13;;;21.91;100.00
45255;BME280;30989;52.078;21.014;2022-08-14T07:36:54;169539.25;;;21.95;100.00
45255;BME280;30989;52.078;21.014;2022-08-14T07:39:19;169543.31;;;21.97;100.00
45255;BME280;30989;52.078;21.014;2022-08-14T07:41:45;169560.88;;;22.03;100.00
45255;BME280;30989;52.078;21.014;2022-08-14T07:44:10;169591.88;;;22.15;100.00
45255;BME280;30989;52.078;21.014;2022-08-14T07:46:36;169620.19;;;22.26;100.00
45255;BME280;30989;52.078;21.014;2022-08-14T07:49:02;169640.44;;;22.33;100.00
45255;BME280;30989;52.078;21.014;2022-08-14T07:51:28;169662.00;;;22.41;100.00
45255;BME280;30989;52.078;21.014;2022-08-14T07:53:54;169684.91;;;22.50;100.00
45255;BME280;30989;52.078;21.014;2022-08-14T07:56:19;169674.13;;;22.46;100.00
45255;BME280;30989;52.078;21.014;2022-08-14T07:58:45;169674.13;;;22.46;100.00
45255;BME280;30989;52.078;21.014;2022-08-14T08:01:11;169659.31;;;22.40;100.00
45255;BME280;30989;52.078;21.014;2022-08-14T08:03:39;169657.94;;;22.40;100.00
45255;BME280;30989;52.078;21.014;2022-08-14T08:06:07;169664.69;;;22.42;100.00
45255;BME280;30989;52.078;21.014;2022-08-14T08:08:33;169683.56;;;22.49;100.00
45255;BME280;30989;52.078;21.014;2022-08-14T08:11:00;169655.25;;;22.39;100.00
45255;BME280;30989;52.078;21.014;2022-08-14T08:13:26;169614.81;;;22.24;100.00
45255;BME280;30989;52.078;21.014;2022-08-14T08:15:54;169578.41;;;22.10;100.00
45255;BME280;30989;52.078;21.014;2022-08-14T08:18:21;169554.09;;;22.01;100.00
45255;BME280;30989;52.078;21.014;2022-08-14T08:20:52;169575.72;;;22.09;100.00
45255;BME280;30989;52.078;21.014;2022-08-14T08:23:20;169620.19;;;22.26;100.00
45255;BME280;30989;52.078;21.014;2022-08-14T08:25:48;169655.25;;;22.39;100.00
45255;BME280;30989;52.078;21.014;2022-08-14T08:28:16;169701.09;;;22.56;100.00
45255;BME280;30989;52.078;21.014;2022-08-14T08:30:47;169717.28;;;22.62;100.00
45255;BME280;30989;52.078;21.014;2022-08-14T08:33:15;169772.63;;;22.83;100.00
45255;BME280;30989;52.078;21.014;2022-08-14T08:35:41;169800.97;;;22.94;100.00
45255;BME280;30989;52.078;21.014;2022-08-14T08:38:09;169827.94;;;23.04;100.00
45255;BME280;30989;52.078;21.014;2022-08-14T08:40:38;169845.47;;;23.10;100.00
45255;BME280;30989;52.078;21.014;2022-08-14T08:43:07;169869.75;;;23.20;100.00
45255;BME280;30989;52.078;21.014;2022-08-14T08:45:34;169876.47;;;23.22;100.00
45255;BME280;30989;52.078;21.014;2022-08-14T08:48:01;169899.41;;;23.31;100.00
45255;BME280;30989;52.078;21.014;2022-08-14T08:50:31;169916.97;;;23.37;100.00
45255;BME280;30989;52.078;21.014;2022-08-14T08:53:02;169899.41;;;23.31;100.00
45255;BME280;30989;52.078;21.014;2022-08-14T08:55:32;169867.03;;;23.19;100.00
45255;BME280;30989;52.078;21.014;2022-08-14T08:58:04;169814.44;;;22.99;100.00
45255;BME280;30989;52.078;21.014;2022-08-14T09:00:31;169784.78;;;22.88;100.00
45255;BME280;30989;52.078;21.014;2022-08-14T09:05:24;169838.72;;;23.08;100.00
45255;BME280;30989;52.078;21.014;2022-08-14T09:07:53;169872.44;;;23.21;100.00
45255;BME280;30989;52.078;21.014;2022-08-14T09:10:18;169881.88;;;23.24;100.00
45255;BME280;30989;52.078;21.014;2022-08-14T09:12:45;169881.88;;;23.24;100.00
45255;BME280;30989;52.078;21.014;2022-08-14T09:15:11;169880.53;;;23.24;100.00
45255;BME280;30989;52.078;21.014;2022-08-14T09:17:36;169889.97;;;23.27;100.00
45255;BME280;30989;52.078;21.014;2022-08-14T09:20:03;169903.47;;;23.32;100.00
45255;BME280;30989;52.078;21.014;2022-08-14T09:22:29;169911.56;;;23.35;100.00
45255;BME280;30989;52.078;21.014;2022-08-14T09:24:55;169943.94;;;23.47;100.00
45255;BME280;30989;52.078;21.014;2022-08-14T09:27:21;169969.63;;;23.57;100.00
45255;BME280;30989;52.078;21.014;2022-08-14T09:29:47;169902.13;;;23.32;100.00
45255;BME280;30989;52.078;21.014;2022-08-14T09:32:15;169884.59;;;23.25;100.00
45255;BME280;30989;52.078;21.014;2022-08-14T09:34:56;169876.47;;;23.22;100.00
45255;BME280;30989;52.078;21.014;2022-08-14T09:43:29;169954.72;;;23.52;100.00
45255;BME280;30989;52.078;21.014;2022-08-14T09:45:55;169957.44;;;23.53;99.20
45255;BME280;30989;52.078;21.014;2022-08-14T09:48:24;169984.47;;;23.63;100.00
45255;BME280;30989;52.078;21.014;2022-08-14T09:50:53;170084.31;;;24.00;100.00
45255;BME280;30989;52.078;21.014;2022-08-14T09:53:38;170173.44;;;24.34;100.00
45255;BME280;30989;52.078;21.014;2022-08-14T09:56:09;170242.28;;;24.60;97.74
45255;BME280;30989;52.078;21.014;2022-08-14T09:58:45;170281.44;;;24.74;97.68
45255;BME280;30989;52.078;21.014;2022-08-14T10:01:16;170277.38;;;24.73;94.99
45255;BME280;30989;52.078;21.014;2022-08-14T10:03:50;170216.63;;;24.50;94.49
45255;BME280;30989;52.078;21.014;2022-08-14T10:06:23;170207.19;;;24.47;95.24
45255;BME280;30989;52.078;21.014;2022-08-14T10:08:57;170242.28;;;24.60;97.04
45255;BME280;30989;52.078;21.014;2022-08-14T10:11:26;170332.72;;;24.94;96.95
45255;BME280;30989;52.078;21.014;2022-08-14T10:13:58;170405.69;;;25.21;95.98
45255;BME280;30989;52.078;21.014;2022-08-14T10:16:39;170497.50;;;25.56;94.97
45255;BME280;30989;52.078;21.014;2022-08-14T10:19:08;170548.88;;;25.75;91.90
45255;BME280;30989;52.078;21.014;2022-08-14T10:21:35;170565.09;;;25.81;92.87
45255;BME280;30989;52.078;21.014;2022-08-14T10:24:02;170556.97;;;25.78;90.83
45255;BME280;30989;52.078;21.014;2022-08-14T10:26:27;170554.28;;;25.77;88.51
45255;BME280;30989;52.078;21.014;2022-08-14T10:28:53;170421.88;;;25.27;89.91
45255;BME280;30989;52.078;21.014;2022-08-14T10:31:27;170348.97;;;25.00;89.52
45255;BME280;30989;52.078;21.014;2022-08-14T10:34:02;170240.94;;;24.59;91.00
45255;BME280;30989;52.078;21.014;2022-08-14T10:36:34;170199.09;;;24.43;91.28
45255;BME280;30989;52.078;21.014;2022-08-14T10:39:06;170158.59;;;24.28;92.34
45255;BME280;30989;52.078;21.014;2022-08-14T10:41:38;170169.41;;;24.32;92.98
45255;BME280;30989;52.078;21.014;2022-08-14T10:44:09;170165.34;;;24.31;91.38
45255;BME280;30989;52.078;21.014;2022-08-14T10:46:53;170128.84;;;24.17;92.88
45255;BME280;30989;52.078;21.014;2022-08-14T10:49:32;170158.59;;;24.28;93.59
45255;BME280;30989;52.078;21.014;2022-08-14T10:52:07;170149.09;;;24.25;92.25
45255;BME280;30989;52.078;21.014;2022-08-14T10:54:42;170108.59;;;24.09;92.39
45255;BME280;30989;52.078;21.014;2022-08-14T10:57:20;170114.00;;;24.11;93.45
45255;BME280;30989;52.078;21.014;2022-08-14T10:59:50;170153.19;;;24.26;93.81
45255;BME280;30989;52.078;21.014;2022-08-14T11:02:27;170222.03;;;24.52;92.27
45255;BME280;30989;52.078;21.014;2022-08-14T11:05:16;170273.31;;;24.71;92.38
45255;BME280;30989;52.078;21.014;2022-08-14T11:10:25;170381.38;;;25.12;91.56
45255;BME280;30989;52.078;21.014;2022-08-14T11:12:55;170457.00;;;25.41;91.56
45255;BME280;30989;52.078;21.014;2022-08-14T11:15:26;170493.47;;;25.54;91.04
45255;BME280;30989;52.078;21.014;2022-08-14T11:17:53;170515.06;;;25.62;89.57
45255;BME280;30989;52.078;21.014;2022-08-14T11:20:22;170543.47;;;25.73;89.78
45255;BME280;30989;52.078;21.014;2022-08-14T11:22:53;170632.66;;;26.07;89.96
45255;BME280;30989;52.078;21.014;2022-08-14T11:25:25;170763.78;;;26.56;88.69
45255;BME280;30989;52.078;21.014;2022-08-14T11:27:57;170851.59;;;26.89;87.37
45255;BME280;30989;52.078;21.014;2022-08-14T11:30:26;170894.88;;;27.05;85.12
45255;BME280;30989;52.078;21.014;2022-08-14T11:32:52;170984.09;;;27.39;85.82
45255;BME280;30989;52.078;21.014;2022-08-14T11:35:23;171189.63;;;28.16;85.83
45255;BME280;30989;52.078;21.014;2022-08-14T11:38:05;171351.94;;;28.77;83.46
45255;BME280;30989;52.078;21.014;2022-08-14T11:40:33;171397.97;;;28.94;78.06
45255;BME280;30989;52.078;21.014;2022-08-14T11:43:01;171395.28;;;28.93;77.13
45255;BME280;30989;52.078;21.014;2022-08-14T11:45:29;171471.00;;;29.22;75.51
45255;BME280;30989;52.078;21.014;2022-08-14T11:47:58;171484.53;;;29.27;75.03
45255;BME280;30989;52.078;21.014;2022-08-14T11:50:26;171481.84;;;29.26;76.34
45255;BME280;30989;52.078;21.014;2022-08-14T11:52:52;171471.00;;;29.22;76.30
45255;BME280;30989;52.078;21.014;2022-08-14T11:55:19;171354.66;;;28.78;71.13
45255;BME280;30989;52.078;21.014;2022-08-14T11:57:45;171127.44;;;27.92;72.73
45255;BME280;30989;52.078;21.014;2022-08-14T12:00:14;170958.41;;;27.29;75.70
45255;BME280;30989;52.078;21.014;2022-08-14T12:02:52;170862.41;;;26.93;76.88
45255;BME280;30989;52.078;21.014;2022-08-14T12:05:38;170748.91;;;26.50;77.96
45255;BME280;30989;52.078;21.014;2022-08-14T12:08:08;170678.59;;;26.24;78.98
45255;BME280;30989;52.078;21.014;2022-08-14T12:10:38;170724.59;;;26.41;80.27
45255;BME280;30989;52.078;21.014;2022-08-14T12:13:15;170763.78;;;26.56;81.33
45255;BME280;30989;52.078;21.014;2022-08-14T12:15:43;170819.16;;;26.77;81.02
45255;BME280;30989;52.078;21.014;2022-08-14T12:18:09;170827.28;;;26.80;79.69
45255;BME280;30989;52.078;21.014;2022-08-14T12:20:38;170796.19;;;26.68;79.64
45255;BME280;30989;52.078;21.014;2022-08-14T12:23:19;170781.34;;;26.62;81.64
45255;BME280;30989;52.078;21.014;2022-08-14T12:25:45;170855.66;;;26.90;81.47
45255;BME280;30989;52.078;21.014;2022-08-14T12:28:11;170970.56;;;27.34;80.72
45255;BME280;30989;52.078;21.014;2022-08-14T12:30:40;171178.81;;;28.12;79.40
45255;BME280;30989;52.078;21.014;2022-08-14T12:33:22;171545.47;;;29.49;78.35
45255;BME280;30989;52.078;21.014;2022-08-14T12:35:51;171912.31;;;30.87;68.78
45255;BME280;30989;52.078;21.014;2022-08-14T12:38:17;172157.50;;;31.79;70.54
45255;BME280;30989;52.078;21.014;2022-08-14T12:40:50;172429.84;;;32.81;68.36
45255;BME280;30989;52.078;21.014;2022-08-14T12:43:17;172714.47;;;33.88;67.17
45255;BME280;30989;52.078;21.014;2022-08-14T12:45:52;172909.69;;;34.61;60.07
45255;BME280;30989;52.078;21.014;2022-08-14T12:48:21;173001.94;;;34.96;61.27
45255;BME280;30989;52.078;21.014;2022-08-14T12:50:48;173174.19;;;35.60;58.66